Time;durP1;ratioP1;P1;durP2;ratioP2;P2;SDS_P1;SDS_P2;PMS_P1;PMS_P2;Temp;Humidity;BMP_temperature;BMP_pressure;BME280_temperature;BME280_humidity;BME280_pressure;Samples;Min_cycle;Max_cycle;Signal;HPM_P1;HPM_P2
2022/04/16 00:01:55;;;;;;;4.20;2.58;;;;;;;;;;5084503;28;20377;-66
2022/04/16 00:04:22;;;;;;;3.42;2.30;;;;;;;;;;5079883;28;20037;-65
2022/04/16 00:06:48;;;;;;;3.50;2.33;;;;;;;;;;5082748;28;20046;-65
2022/04/16 00:09:14;;;;;;;4.70;2.30;;;;;;;;;;5089894;28;20540;-65
2022/04/16 00:11:40;;;;;;;4.13;2.03;;;;;;;;;;5089770;28;20123;-65
2022/04/16 00:14:06;;;;;;;3.35;2.13;;;;;;;;;;5103368;28;20031;-66
2022/04/16 00:16:33;;;;;;;2.35;1.70;;;;;;;;;;5080048;28;20103;-65
2022/04/16 00:19:09;;;;;;;;;;;;;;;;;;;;;
2022/04/16 00:21:36;;;;;;;5.55;1.98;;;;;;;;;;5025995;28;20042;-65
2022/04/16 00:24:02;;;;;;;3.58;2.10;;;;;;;;;;5024203;28;20037;-66
2022/04/16 00:26:28;;;;;;;3.05;2.20;;;;;;;;;;5008462;28;20033;-66
2022/04/16 00:28:54;;;;;;;4.18;2.00;;;;;;;;;;5026847;28;20040;-65
2022/04/16 00:31:21;;;;;;;2.50;2.30;;;;;;;;;;5026589;28;20068;-65
2022/04/16 00:33:47;;;;;;;2.80;2.00;;;;;;;;;;5065248;22;20053;-65
2022/04/16 00:36:16;;;;;;;2.80;1.63;;;;;;;;;;5101794;28;20085;-66
2022/04/16 00:38:43;;;;;;;4.57;1.90;;;;;;;;;;5109160;28;20012;-65
2022/04/16 00:41:11;;;;;;;2.05;1.80;;;;;;;;;;5109687;28;20465;-65
2022/04/16 00:43:37;;;;;;;4.35;2.30;;;;;;;;;;5083706;28;20069;-64
2022/04/16 00:46:03;;;;;;;2.47;1.70;;;;;;;;;;5109531;28;20032;-65
2022/04/16 00:48:29;;;;;;;2.85;1.98;;;;;;;;;;5105414;28;20072;-65
2022/04/16 00:50:56;;;;;;;2.08;1.77;;;;;;;;;;5109506;28;20384;-65
2022/04/16 00:53:29;;;;;;;2.85;2.10;;;;;;;;;;5108690;28;20545;-65
2022/04/16 00:55:57;;;;;;;2.25;1.92;;;;;;;;;;5106585;28;20509;-65
2022/04/16 00:58:23;;;;;;;2.65;2.05;;;;;;;;;;5104964;28;20543;-65
2022/04/16 01:00:49;;;;;;;6.85;2.10;;;;;;;;;;5110657;28;20103;-65
2022/04/16 01:03:15;;;;;;;7.20;2.35;;;;;;;;;;5104112;28;20044;-65
2022/04/16 01:05:41;;;;;;;3.22;1.88;;;;;;;;;;5108976;28;20024;-66
2022/04/16 01:08:08;;;;;;;2.40;1.60;;;;;;;;;;5108608;28;20077;-65
2022/04/16 01:10:35;;;;;;;4.75;2.08;;;;;;;;;;5091262;28;20114;-65
2022/04/16 01:13:02;;;;;;;4.70;2.10;;;;;;;;;;5109389;28;20103;-65
2022/04/16 01:15:31;;;;;;;2.38;1.88;;;;;;;;;;5108518;28;20373;-65
2022/04/16 01:17:59;;;;;;;2.17;1.80;;;;;;;;;;5108071;28;20054;-66
2022/04/16 01:20:25;;;;;;;2.75;1.90;;;;;;;;;;5107456;28;20098;-65
2022/04/16 01:22:51;;;;;;;2.40;1.85;;;;;;;;;;5109313;28;20102;-65
2022/04/16 01:25:18;;;;;;;4.20;2.10;;;;;;;;;;5108053;28;20032;-65
2022/04/16 01:27:45;;;;;;;2.83;1.80;;;;;;;;;;5108752;28;20164;-65
2022/04/16 01:30:12;;;;;;;2.92;1.83;;;;;;;;;;5104545;28;20111;-65
2022/04/16 01:32:38;;;;;;;8.43;1.92;;;;;;;;;;5105375;28;20040;-65
2022/04/16 01:35:07;;;;;;;5.57;2.00;;;;;;;;;;5108230;28;20039;-65
2022/04/16 01:37:35;;;;;;;3.00;2.13;;;;;;;;;;5107767;28;20029;-65
2022/04/16 01:40:02;;;;;;;3.50;2.40;;;;;;;;;;5105059;28;20042;-65
2022/04/16 01:42:32;;;;;;;2.63;1.77;;;;;;;;;;5108543;28;20135;-65
2022/04/16 01:44:59;;;;;;;;;;;;;;;;;;5100887;28;20065;-65
2022/04/16 01:47:25;;;;;;;2.10;1.90;;;;;;;;;;5098432;28;19911;-65
2022/04/16 01:49:51;;;;;;;3.85;1.80;;;;;;;;;;5106272;28;20161;-65
2022/04/16 01:52:17;;;;;;;3.72;1.80;;;;;;;;;;5108052;28;20533;-65
2022/04/16 01:54:43;;;;;;;3.22;2.05;;;;;;;;;;5109231;28;20096;-65
2022/04/16 01:57:10;;;;;;;2.60;2.00;;;;;;;;;;5109476;28;20067;-66
2022/04/16 01:59:36;;;;;;;3.20;1.90;;;;;;;;;;5092739;28;20020;-65
2022/04/16 02:02:02;;;;;;;2.38;1.90;;;;;;;;;;5108508;28;20015;-65
2022/04/16 02:04:28;;;;;;;6.30;2.10;;;;;;;;;;5111975;28;20034;-65
2022/04/16 02:06:54;;;;;;;2.83;1.98;;;;;;;;;;5111050;28;20472;-66
2022/04/16 02:09:20;;;;;;;2.70;1.75;;;;;;;;;;5105618;28;20035;-66
2022/04/16 02:11:46;;;;;;;2.28;1.88;;;;;;;;;;5111739;28;20016;-65
2022/04/16 02:14:12;;;;;;;6.50;2.03;;;;;;;;;;5112676;28;20062;-65
2022/04/16 02:16:38;;;;;;;3.30;1.92;;;;;;;;;;5110833;28;20031;-66
2022/04/16 02:19:04;;;;;;;1.85;1.70;;;;;;;;;;5110761;28;20043;-65
2022/04/16 02:21:32;;;;;;;3.30;2.00;;;;;;;;;;5092628;28;20032;-65
2022/04/16 02:23:58;;;;;;;3.53;2.10;;;;;;;;;;5110423;28;20038;-65
2022/04/16 02:26:26;;;;;;;2.95;2.05;;;;;;;;;;5111657;28;20030;-65
2022/04/16 02:28:52;;;;;;;6.10;2.00;;;;;;;;;;5112396;28;20027;-65
2022/04/16 02:31:18;;;;;;;3.00;1.83;;;;;;;;;;5113153;28;20077;-66
2022/04/16 02:33:45;;;;;;;2.72;1.90;;;;;;;;;;5113456;28;20506;-65
2022/04/16 02:36:12;;;;;;;4.55;2.13;;;;;;;;;;5110698;28;20411;-65
2022/04/16 02:38:40;;;;;;;4.80;2.05;;;;;;;;;;5114147;28;20270;-66
2022/04/16 02:41:06;;;;;;;3.38;2.05;;;;;;;;;;5104549;28;20032;-65
2022/04/16 02:43:32;;;;;;;2.80;2.10;;;;;;;;;;5084418;28;20024;-65
2022/04/16 02:48:42;;;;;;;2.30;1.83;;;;;;;;;;5105024;28;20039;-66
2022/04/16 02:51:08;;;;;;;3.15;2.10;;;;;;;;;;5113561;28;20031;-65
2022/04/16 02:53:35;;;;;;;2.72;2.03;;;;;;;;;;5113675;28;20019;-65
2022/04/16 02:56:01;;;;;;;2.65;2.00;;;;;;;;;;5112673;28;20071;-64
2022/04/16 02:58:33;;;;;;;2.78;1.70;;;;;;;;;;5114566;28;20052;-65
2022/04/16 03:00:59;;;;;;;2.33;1.98;;;;;;;;;;5113760;28;20020;-65
2022/04/16 03:04:01;;;;;;;5.00;2.50;;;;;;;;;;5114915;28;20028;-65
2022/04/16 03:06:30;;;;;;;2.65;2.00;;;;;;;;;;5099535;28;20032;-65
2022/04/16 03:08:56;;;;;;;3.20;2.13;;;;;;;;;;5110348;28;20020;-65
2022/04/16 03:11:22;;;;;;;2.75;1.85;;;;;;;;;;5110427;28;20028;-65
2022/04/16 03:13:48;;;;;;;3.55;2.20;;;;;;;;;;5104438;28;20476;-65
2022/04/16 03:18:58;;;;;;;3.00;1.95;;;;;;;;;;5110117;28;20388;-65
2022/04/16 03:21:24;;;;;;;3.33;2.20;;;;;;;;;;5110497;28;20020;-65
2022/04/16 03:23:50;;;;;;;3.92;2.20;;;;;;;;;;5110637;28;20027;-65
2022/04/16 03:26:16;;;;;;;4.43;2.30;;;;;;;;;;5110021;28;20487;-66
2022/04/16 03:28:42;;;;;;;2.80;2.17;;;;;;;;;;5091654;28;20028;-65
2022/04/16 03:31:08;;;;;;;3.03;2.10;;;;;;;;;;5090459;28;20027;-65
2022/04/16 03:33:35;;;;;;;5.00;2.08;;;;;;;;;;5107223;28;20487;-65
2022/04/16 03:36:01;;;;;;;8.63;2.45;;;;;;;;;;5107320;28;20043;-65
2022/04/16 03:38:27;;;;;;;4.65;2.42;;;;;;;;;;5103855;28;20036;-65
2022/04/16 03:40:53;;;;;;;3.88;2.25;;;;;;;;;;5109339;28;20027;-65
2022/04/16 03:43:26;;;;;;;2.47;2.05;;;;;;;;;;5092322;28;20028;-65
2022/04/16 03:45:52;;;;;;;2.75;2.05;;;;;;;;;;5110603;28;20040;-65
2022/04/16 03:48:18;;;;;;;3.08;1.90;;;;;;;;;;5108379;28;20039;-65
2022/04/16 03:50:44;;;;;;;5.00;2.08;;;;;;;;;;5108412;28;20028;-65
2022/04/16 03:53:10;;;;;;;3.67;2.25;;;;;;;;;;5091698;28;20499;-65
2022/04/16 04:01:06;;;;;;;4.35;2.20;;;;;;;;;;5103979;28;20042;-65
2022/04/16 04:03:32;;;;;;;2.30;1.80;;;;;;;;;;5110033;28;20244;-64
2022/04/16 04:06:00;;;;;;;3.88;2.22;;;;;;;;;;5108343;28;20027;-64
2022/04/16 04:08:26;;;;;;;2.72;2.17;;;;;;;;;;5107858;28;20024;-64
2022/04/16 04:10:53;;;;;;;3.80;2.20;;;;;;;;;;5098541;28;20051;-64
2022/04/16 04:13:19;;;;;;;2.13;1.80;;;;;;;;;;5109396;28;20019;-65
2022/04/16 04:15:45;;;;;;;2.78;2.00;;;;;;;;;;5109040;28;20073;-64
2022/04/16 04:18:11;;;;;;;4.65;2.45;;;;;;;;;;5108917;28;20088;-64
2022/04/16 04:20:37;;;;;;;4.53;2.70;;;;;;;;;;5107781;28;20098;-65
2022/04/16 04:23:04;;;;;;;4.28;2.25;;;;;;;;;;5090995;28;20537;-65
2022/04/16 04:25:30;;;;;;;3.60;2.05;;;;;;;;;;5107334;28;20028;-64
2022/04/16 04:27:56;;;;;;;3.75;2.60;;;;;;;;;;5107104;28;20024;-64
2022/04/16 04:30:22;;;;;;;5.57;2.55;;;;;;;;;;5099769;28;20489;-66
2022/04/16 04:32:48;;;;;;;3.92;2.60;;;;;;;;;;5101560;28;20027;-64
2022/04/16 04:35:14;;;;;;;3.13;2.45;;;;;;;;;;5107708;28;20392;-64
2022/04/16 04:37:40;;;;;;;4.35;3.25;;;;;;;;;;5100508;28;20039;-64
2022/04/16 04:40:07;;;;;;;4.35;2.88;;;;;;;;;;5106598;28;20028;-64
2022/04/16 04:42:33;;;;;;;5.13;3.03;;;;;;;;;;5109451;28;20019;-64
2022/04/16 04:45:00;;;;;;;3.55;2.67;;;;;;;;;;5095136;28;20036;-65
2022/04/16 04:47:26;;;;;;;8.85;3.40;;;;;;;;;;5091405;28;20036;-65
2022/04/16 04:49:52;;;;;;;4.82;3.20;;;;;;;;;;5108735;28;20016;-65
2022/04/16 04:52:23;;;;;;;3.60;2.70;;;;;;;;;;5109309;28;20139;-64
2022/04/16 04:54:49;;;;;;;3.80;2.80;;;;;;;;;;5101417;28;20019;-65
2022/04/16 04:57:15;;;;;;;3.50;2.75;;;;;;;;;;5108876;28;20031;-65
2022/04/16 04:59:41;;;;;;;4.60;3.00;;;;;;;;;;5108585;28;20495;-65
2022/04/16 05:02:12;;;;;;;4.55;2.97;;;;;;;;;;5093238;28;20019;-64
2022/04/16 05:04:45;;;;;;;5.88;3.60;;;;;;;;;;5112525;28;20034;-64
2022/04/16 05:07:12;;;;;;;4.68;3.25;;;;;;;;;;5108669;28;20516;-65
2022/04/16 05:09:44;;;;;;;6.28;3.35;;;;;;;;;;5111746;28;20111;-64
2022/04/16 05:12:10;;;;;;;5.88;3.65;;;;;;;;;;5109133;28;20042;-64
2022/04/16 05:14:36;;;;;;;5.32;3.30;;;;;;;;;;5089614;28;20027;-64
2022/04/16 05:17:02;;;;;;;5.07;3.17;;;;;;;;;;5106729;28;20035;-64
2022/04/16 05:19:29;;;;;;;5.90;3.80;;;;;;;;;;5109141;28;20020;-64
2022/04/16 05:21:55;;;;;;;7.25;3.90;;;;;;;;;;5104856;28;20028;-64
2022/04/16 05:24:21;;;;;;;7.00;3.78;;;;;;;;;;5104387;28;20031;-64
2022/04/16 05:26:47;;;;;;;6.07;3.90;;;;;;;;;;5108835;28;20510;-64
2022/04/16 05:29:14;;;;;;;6.22;3.42;;;;;;;;;;5090672;28;20027;-64
2022/04/16 05:31:41;;;;;;;5.38;3.40;;;;;;;;;;5109238;28;20089;-65
2022/04/16 05:34:21;;;;;;;6.72;3.70;;;;;;;;;;5109422;28;20034;-63
2022/04/16 05:36:48;;;;;;;6.55;3.80;;;;;;;;;;5088610;28;20027;-62
2022/04/16 05:39:14;;;;;;;7.93;4.18;;;;;;;;;;5111735;28;20047;-62
2022/04/16 05:41:40;;;;;;;7.35;3.78;;;;;;;;;;5112679;28;20031;-63
2022/04/16 05:44:07;;;;;;;5.63;3.75;;;;;;;;;;5093094;28;20031;-63
2022/04/16 05:46:33;;;;;;;5.63;3.80;;;;;;;;;;5105714;28;20035;-62
2022/04/16 05:48:59;;;;;;;8.02;4.70;;;;;;;;;;5107570;28;20032;-62
2022/04/16 05:51:26;;;;;;;9.90;5.40;;;;;;;;;;5107458;28;20340;-63
2022/04/16 05:53:52;;;;;;;10.88;4.70;;;;;;;;;;5111628;28;20035;-62
2022/04/16 05:56:19;;;;;;;6.03;3.83;;;;;;;;;;5111809;28;20031;-63
2022/04/16 05:58:45;;;;;;;9.00;4.65;;;;;;;;;;5112043;28;20051;-63
2022/04/16 06:01:12;;;;;;;9.27;4.97;;;;;;;;;;5112430;28;20096;-62
2022/04/16 06:03:41;;;;;;;8.00;4.95;;;;;;;;;;5111003;28;20491;-64
2022/04/16 06:06:07;;;;;;;7.57;4.40;;;;;;;;;;5105049;28;20019;-62
2022/04/16 06:08:33;;;;;;;8.75;3.88;;;;;;;;;;5112568;28;20024;-62
2022/04/16 06:11:00;;;;;;;6.95;4.30;;;;;;;;;;5110588;28;20043;-62
2022/04/16 06:13:26;;;;;;;6.38;4.28;;;;;;;;;;5093506;28;20492;-62
2022/04/16 06:15:52;;;;;;;9.05;4.55;;;;;;;;;;5107329;28;20028;-62
2022/04/16 06:18:18;;;;;;;6.80;4.15;;;;;;;;;;5089699;28;20035;-62
2022/04/16 06:20:44;;;;;;;7.35;4.07;;;;;;;;;;5110753;28;20092;-62
2022/04/16 06:23:10;;;;;;;7.68;4.47;;;;;;;;;;5111702;28;20030;-62
2022/04/16 06:25:36;;;;;;;5.95;3.92;;;;;;;;;;5092446;28;20028;-62
2022/04/16 06:28:03;;;;;;;5.60;3.65;;;;;;;;;;5091374;28;20027;-63
2022/04/16 06:30:29;;;;;;;8.55;4.10;;;;;;;;;;5110981;28;20022;-62
2022/04/16 06:32:55;;;;;;;7.13;4.15;;;;;;;;;;5104892;28;20023;-62
2022/04/16 06:35:22;;;;;;;7.32;4.20;;;;;;;;;;5112088;28;20066;-62
2022/04/16 06:37:48;;;;;;;5.43;3.42;;;;;;;;;;5092305;28;20039;-62
2022/04/16 06:40:14;;;;;;;4.95;3.28;;;;;;;;;;5107130;28;20036;-63
2022/04/16 06:42:41;;;;;;;5.60;3.50;;;;;;;;;;5105492;27;20459;-62
2022/04/16 06:45:08;;;;;;;6.03;3.90;;;;;;;;;;5090162;28;20389;-62
2022/04/16 06:47:34;;;;;;;4.50;2.80;;;;;;;;;;5083503;28;20213;-63
2022/04/16 06:50:00;;;;;;;5.40;3.40;;;;;;;;;;5111017;28;20020;-63
2022/04/16 06:52:26;;;;;;;7.90;3.95;;;;;;;;;;5104439;28;20063;-63
2022/04/16 06:54:52;;;;;;;5.70;3.90;;;;;;;;;;5102482;28;20024;-63
2022/04/16 06:57:18;;;;;;;5.22;3.35;;;;;;;;;;5100970;28;20044;-63
2022/04/16 06:59:44;;;;;;;7.45;3.72;;;;;;;;;;5092214;28;20031;-62
2022/04/16 07:02:11;;;;;;;6.80;3.85;;;;;;;;;;5111110;28;20077;-62
2022/04/16 07:04:37;;;;;;;8.50;3.65;;;;;;;;;;5103946;28;20031;-62
2022/04/16 07:09:38;;;;;;;5.20;3.33;;;;;;;;;;5090463;22;20498;-63
2022/04/16 07:12:10;;;;;;;7.43;3.80;;;;;;;;;;5061325;28;20048;-64
2022/04/16 07:14:37;;;;;;;5.93;3.50;;;;;;;;;;5069756;28;20036;-65
2022/04/16 07:17:03;;;;;;;7.80;4.18;;;;;;;;;;5077484;28;20381;-67
2022/04/16 07:19:30;;;;;;;7.20;3.95;;;;;;;;;;5074141;28;21914;-65
2022/04/16 07:21:56;;;;;;;6.88;3.75;;;;;;;;;;5069086;28;20115;-65
2022/04/16 07:24:23;;;;;;;6.75;4.80;;;;;;;;;;5067451;28;20160;-64
2022/04/16 07:26:49;;;;;;;8.43;4.50;;;;;;;;;;5070853;28;20016;-65
2022/04/16 07:29:16;;;;;;;6.90;3.97;;;;;;;;;;5077491;28;20023;-64
2022/04/16 07:31:42;;;;;;;7.85;3.97;;;;;;;;;;5079560;28;20138;-64
2022/04/16 07:34:08;;;;;;;7.10;3.58;;;;;;;;;;5074539;28;20117;-64
2022/04/16 07:36:34;;;;;;;5.80;3.55;;;;;;;;;;5062464;28;20024;-65
2022/04/16 07:39:00;;;;;;;8.82;3.97;;;;;;;;;;5072832;28;20528;-64
2022/04/16 07:41:26;;;;;;;5.68;3.83;;;;;;;;;;5078650;28;20025;-64
2022/04/16 07:43:52;;;;;;;7.57;3.95;;;;;;;;;;5072623;28;20032;-65
2022/04/16 07:46:22;;;;;;;6.45;3.92;;;;;;;;;;5073809;28;20025;-64
2022/04/16 07:48:48;;;;;;;6.75;4.13;;;;;;;;;;5079468;28;20019;-65
2022/04/16 07:51:14;;;;;;;9.40;4.88;;;;;;;;;;5060928;28;20519;-64
2022/04/16 07:53:40;;;;;;;5.43;3.72;;;;;;;;;;5055876;28;20127;-65
2022/04/16 07:56:06;;;;;;;7.65;4.55;;;;;;;;;;5066777;28;20112;-65
2022/04/16 07:58:32;;;;;;;7.65;3.88;;;;;;;;;;5077846;28;20035;-64
2022/04/16 08:00:58;;;;;;;6.68;4.18;;;;;;;;;;5089105;28;20020;-64
2022/04/16 08:03:24;;;;;;;10.05;4.70;;;;;;;;;;5086792;28;20040;-65
2022/04/16 08:05:50;;;;;;;7.20;4.05;;;;;;;;;;5062270;28;20066;-64
2022/04/16 08:08:16;;;;;;;6.82;4.28;;;;;;;;;;5083255;28;20503;-64
2022/04/16 08:10:42;;;;;;;7.15;4.40;;;;;;;;;;5071526;28;20032;-64
2022/04/16 08:13:08;;;;;;;11.35;5.00;;;;;;;;;;5084189;28;20108;-64
2022/04/16 08:15:35;;;;;;;9.27;4.65;;;;;;;;;;5082411;28;20104;-65
2022/04/16 08:18:02;;;;;;;6.43;4.20;;;;;;;;;;5079391;28;20067;-64
2022/04/16 08:20:28;;;;;;;7.15;4.22;;;;;;;;;;5052829;28;20048;-64
2022/04/16 08:22:54;;;;;;;5.53;3.83;;;;;;;;;;5084452;28;20025;-64
2022/04/16 08:27:47;;;;;;;9.15;4.85;;;;;;;;;;5072031;28;20037;-65
2022/04/16 08:30:14;;;;;;;8.02;4.88;;;;;;;;;;5051413;28;20036;-64
2022/04/16 08:32:43;;;;;;;7.47;4.55;;;;;;;;;;5088338;28;20024;-65
2022/04/16 08:35:10;;;;;;;8.38;4.90;;;;;;;;;;5083024;28;20074;-65
2022/04/16 08:37:36;;;;;;;7.35;4.50;;;;;;;;;;5046182;28;20049;-64
2022/04/16 08:40:03;;;;;;;7.00;4.93;;;;;;;;;;5074623;28;20425;-64
2022/04/16 08:42:30;;;;;;;8.20;4.15;;;;;;;;;;5084168;28;20385;-64
2022/04/16 08:44:57;;;;;;;7.55;4.70;;;;;;;;;;5088885;28;20099;-64
2022/04/16 08:47:24;;;;;;;6.97;4.63;;;;;;;;;;5086538;28;20050;-64
2022/04/16 08:49:50;;;;;;;9.32;4.72;;;;;;;;;;5080564;28;20039;-64
2022/04/16 08:52:17;;;;;;;6.03;4.07;;;;;;;;;;5088400;28;20032;-65
2022/04/16 08:54:43;;;;;;;6.78;4.50;;;;;;;;;;5085869;28;20058;-64
2022/04/16 08:57:09;;;;;;;8.68;5.13;;;;;;;;;;5077001;28;20029;-64
2022/04/16 08:59:35;;;;;;;8.80;4.68;;;;;;;;;;5074470;28;20024;-64
2022/04/16 09:02:01;;;;;;;9.32;5.35;;;;;;;;;;5071551;28;20042;-64
2022/04/16 09:04:33;;;;;;;9.50;4.97;;;;;;;;;;5076974;28;20120;-64
2022/04/16 09:07:00;;;;;;;6.47;4.43;;;;;;;;;;5088991;28;20012;-64
2022/04/16 09:09:27;;;;;;;9.10;5.47;;;;;;;;;;5074263;28;20428;-65
2022/04/16 09:11:53;;;;;;;9.43;5.47;;;;;;;;;;5062967;28;20474;-64
2022/04/16 09:14:19;;;;;;;9.15;4.78;;;;;;;;;;5084506;28;20107;-64
2022/04/16 09:16:46;;;;;;;8.10;4.70;;;;;;;;;;5079351;28;20028;-65
2022/04/16 09:19:13;;;;;;;8.40;4.95;;;;;;;;;;5092443;28;20098;-64
2022/04/16 09:21:39;;;;;;;7.53;4.78;;;;;;;;;;5082274;28;20035;-65
2022/04/16 09:24:05;;;;;;;8.43;4.72;;;;;;;;;;5083847;28;20508;-64
2022/04/16 09:26:31;;;;;;;7.30;4.70;;;;;;;;;;5089627;28;20032;-64
2022/04/16 09:29:02;;;;;;;11.38;4.60;;;;;;;;;;5092386;28;20027;-64
2022/04/16 09:31:28;;;;;;;7.55;4.70;;;;;;;;;;5067885;28;20031;-64
2022/04/16 09:33:55;;;;;;;8.80;4.85;;;;;;;;;;5092347;28;20012;-64
2022/04/16 09:36:25;;;;;;;9.20;4.82;;;;;;;;;;5092247;28;20040;-64
2022/04/16 09:38:51;;;;;;;6.55;4.10;;;;;;;;;;5070742;28;20034;-64
2022/04/16 09:41:17;;;;;;;7.60;4.72;;;;;;;;;;5081142;28;20025;-65
2022/04/16 09:43:43;;;;;;;8.68;4.75;;;;;;;;;;5087260;28;20095;-64
2022/04/16 09:46:12;;;;;;;7.72;4.35;;;;;;;;;;5090995;28;20039;-64
2022/04/16 09:48:38;;;;;;;7.45;4.05;;;;;;;;;;5092547;28;20056;-64
2022/04/16 09:51:05;;;;;;;6.35;3.90;;;;;;;;;;5093463;28;20031;-64
2022/04/16 09:53:31;;;;;;;7.22;3.95;;;;;;;;;;5077044;28;20036;-64
2022/04/16 09:55:59;;;;;;;7.72;4.47;;;;;;;;;;5061101;28;20249;-65
2022/04/16 09:58:44;;;;;;;7.45;3.92;;;;;;;;;;5074873;28;20071;-65
2022/04/16 10:01:11;;;;;;;5.25;3.47;;;;;;;;;;5088567;28;20101;-64
2022/04/16 10:03:39;;;;;;;6.65;3.88;;;;;;;;;;5072988;28;20082;-64
2022/04/16 10:06:05;;;;;;;6.80;3.42;;;;;;;;;;5086437;28;20526;-64
2022/04/16 10:08:31;;;;;;;7.53;3.67;;;;;;;;;;5082747;28;20393;-64
2022/04/16 10:10:58;;;;;;;5.38;3.72;;;;;;;;;;5092335;28;20106;-64
2022/04/16 10:13:24;;;;;;;7.50;4.07;;;;;;;;;;5078499;28;20139;-64
2022/04/16 10:16:02;;;;;;;5.88;3.72;;;;;;;;;;5061042;28;20025;-64
2022/04/16 10:18:28;;;;;;;5.95;3.70;;;;;;;;;;5091335;28;20065;-64
2022/04/16 10:20:55;;;;;;;7.07;3.67;;;;;;;;;;5091472;28;20016;-64
2022/04/16 10:23:40;;;;;;;6.13;3.33;;;;;;;;;;5086556;28;20102;-64
2022/04/16 10:26:14;;;;;;;5.25;3.00;;;;;;;;;;5077731;28;20355;-64
2022/04/16 10:28:44;;;;;;;6.13;3.45;;;;;;;;;;5091888;28;20095;-65
2022/04/16 10:31:20;;;;;;;6.53;3.70;;;;;;;;;;5073226;28;20034;-64
2022/04/16 10:33:56;;;;;;;6.43;3.72;;;;;;;;;;5088139;28;20031;-64
2022/04/16 10:36:25;;;;;;;5.60;3.88;;;;;;;;;;5086084;28;20148;-64
2022/04/16 10:38:52;;;;;;;5.82;3.95;;;;;;;;;;5071500;28;20111;-64
2022/04/16 10:41:21;;;;;;;6.82;3.90;;;;;;;;;;5083234;28;20037;-64
2022/04/16 10:43:57;;;;;;;7.70;3.63;;;;;;;;;;5080908;28;20024;-64
2022/04/16 10:46:23;;;;;;;5.32;3.67;;;;;;;;;;5074834;28;20301;-64
2022/04/16 10:48:50;;;;;;;6.55;3.88;;;;;;;;;;5057915;28;20466;-66
2022/04/16 10:51:18;;;;;;;8.45;4.30;;;;;;;;;;5064010;28;20466;-72
2022/04/16 10:53:44;;;;;;;6.95;4.28;;;;;;;;;;5052478;28;20024;-73
2022/04/16 10:56:17;;;;;;;8.43;4.28;;;;;;;;;;5083594;28;20039;-71
2022/04/16 10:58:45;;;;;;;8.05;4.47;;;;;;;;;;5061496;28;20141;-72
2022/04/16 11:01:12;;;;;;;7.68;4.03;;;;;;;;;;5075243;28;20037;-71
2022/04/16 11:03:46;;;;;;;7.72;3.70;;;;;;;;;;5051743;28;20033;-73
2022/04/16 11:06:12;;;;;;;6.40;4.13;;;;;;;;;;5083326;28;20383;-73
2022/04/16 11:08:39;;;;;;;5.80;3.60;;;;;;;;;;5085734;28;20118;-71
2022/04/16 11:11:05;;;;;;;4.25;3.13;;;;;;;;;;5083089;28;20027;-71
2022/04/16 11:13:38;;;;;;;8.02;4.30;;;;;;;;;;5078192;28;20037;-71
2022/04/16 11:16:05;;;;;;;6.22;4.03;;;;;;;;;;5072017;28;20088;-72
2022/04/16 11:18:44;;;;;;;6.28;3.70;;;;;;;;;;5082253;28;20397;-72
2022/04/16 11:21:14;;;;;;;5.45;3.33;;;;;;;;;;5046446;28;20028;-71
2022/04/16 11:23:41;;;;;;;37.20;14.88;;;;;;;;;;5070629;28;20021;-72
2022/04/16 11:34:29;;;;;;;9.38;5.38;;;;;;;;;;5086722;28;20120;-71
2022/04/16 11:36:55;;;;;;;7.45;4.18;;;;;;;;;;5066141;28;20024;-71
2022/04/16 11:39:23;;;;;;;6.20;3.90;;;;;;;;;;5050138;28;20444;-72
2022/04/16 11:41:55;;;;;;;5.75;3.13;;;;;;;;;;5085009;28;20017;-71
2022/04/16 11:44:38;;;;;;;9.20;4.20;;;;;;;;;;5084399;28;20028;-71
2022/04/16 11:47:07;;;;;;;5.63;3.50;;;;;;;;;;5073339;28;20032;-71
2022/04/16 11:49:33;;;;;;;6.38;3.28;;;;;;;;;;5067664;28;20111;-70
2022/04/16 11:52:06;;;;;;;6.15;3.55;;;;;;;;;;5089948;27;20994;-72
2022/04/16 11:54:32;;;;;;;6.95;4.32;;;;;;;;;;5070453;28;20029;-72
2022/04/16 12:06:16;;;;;;;7.60;4.47;;;;;;;;;;5075124;28;20017;-72
2022/04/16 12:08:43;;;;;;;12.13;6.70;;;;;;;;;;5057372;28;20082;-72
2022/04/16 12:11:10;;;;;;;5.47;3.75;;;;;;;;;;5060706;28;20552;-72
2022/04/16 12:13:37;;;;;;;6.00;3.40;;;;;;;;;;5082455;28;20107;-72
2022/04/16 12:16:04;;;;;;;8.75;3.65;;;;;;;;;;5044890;28;20029;-72
2022/04/16 12:18:34;;;;;;;9.40;4.50;;;;;;;;;;5074278;28;20421;-73
2022/04/16 12:21:00;;;;;;;;;;;;;;;;;;5052370;28;20099;-73
2022/04/16 12:23:26;;;;;;;6.22;3.58;;;;;;;;;;5069355;28;19909;-72
2022/04/16 12:26:04;;;;;;;8.85;4.68;;;;;;;;;;5050392;28;20024;-72
2022/04/16 12:28:32;;;;;;;14.02;4.72;;;;;;;;;;5061698;28;20108;-73
2022/04/16 12:30:58;;;;;;;10.85;5.05;;;;;;;;;;5075151;28;20048;-72
2022/04/16 12:33:27;;;;;;;8.38;4.40;;;;;;;;;;5074639;28;20024;-73
2022/04/16 12:36:02;;;;;;;10.50;4.80;;;;;;;;;;5073031;28;20024;-72
2022/04/16 12:38:28;;;;;;;8.23;4.50;;;;;;;;;;5088570;28;20031;-72
2022/04/16 12:41:08;;;;;;;10.50;4.95;;;;;;;;;;5089062;28;20031;-72
2022/04/16 12:43:35;;;;;;;7.57;4.50;;;;;;;;;;5090501;28;20032;-72
2022/04/16 12:46:08;;;;;;;9.30;5.28;;;;;;;;;;5099321;28;20090;-72
2022/04/16 12:48:34;;;;;;;10.40;5.13;;;;;;;;;;5113669;28;20019;-72
2022/04/16 12:51:21;;;;;;;7.55;4.25;;;;;;;;;;5111211;28;20401;-73
2022/04/16 12:53:47;;;;;;;11.00;4.70;;;;;;;;;;5088618;28;20093;-73
2022/04/16 12:56:13;;;;;;;8.65;4.95;;;;;;;;;;5100565;28;20123;-72
2022/04/16 12:58:39;;;;;;;9.23;4.75;;;;;;;;;;5087385;28;20119;-72
2022/04/16 13:01:06;;;;;;;6.15;3.92;;;;;;;;;;5105512;28;20105;-72
2022/04/16 13:03:32;;;;;;;5.43;3.80;;;;;;;;;;5069498;28;20028;-72
2022/04/16 13:05:58;;;;;;;6.00;3.70;;;;;;;;;;5100153;28;20084;-72
2022/04/16 13:14:43;;;;;;;8.68;4.38;;;;;;;;;;5014154;28;20060;-71
2022/04/16 13:17:12;;;;;;;9.07;4.97;;;;;;;;;;4989646;28;20104;-72
2022/04/16 13:19:38;;;;;;;9.05;4.15;;;;;;;;;;4984151;28;20030;-72
2022/04/16 13:28:05;;;;;;;5.68;3.33;;;;;;;;;;5018909;28;20049;-72
2022/04/16 13:52:10;;;;;;;13.73;4.78;;;;;;;;;;5094837;28;20044;-71
2022/04/16 13:54:36;;;;;;;4.13;2.70;;;;;;;;;;5097738;28;20034;-73
2022/04/16 13:57:03;;;;;;;5.35;3.03;;;;;;;;;;5097172;28;20026;-72
2022/04/16 13:59:31;;;;;;;8.50;3.33;;;;;;;;;;5088661;28;20035;-72
2022/04/16 14:01:57;;;;;;;8.93;3.40;;;;;;;;;;5093256;28;20058;-72
2022/04/16 14:04:23;;;;;;;8.13;4.20;;;;;;;;;;5075397;28;20454;-72
2022/04/16 14:06:50;;;;;;;6.30;3.35;;;;;;;;;;5090569;28;20036;-72
2022/04/16 14:09:18;;;;;;;7.38;3.33;;;;;;;;;;5094096;28;20062;-72
2022/04/16 14:11:45;;;;;;;5.38;3.08;;;;;;;;;;5066751;28;20498;-72
2022/04/16 14:14:11;;;;;;;3.65;2.65;;;;;;;;;;5090633;28;20127;-73
2022/04/16 14:16:37;;;;;;;8.52;3.53;;;;;;;;;;5091029;28;20024;-72
2022/04/16 14:22:37;;;;;;;16.25;7.25;;;;;;;;;;5094365;28;20056;-72
2022/04/16 14:25:04;;;;;;;4.93;3.40;;;;;;;;;;5093627;28;20052;-73
2022/04/16 14:27:30;;;;;;;5.18;3.28;;;;;;;;;;5091200;28;20081;-73
2022/04/16 14:29:57;;;;;;;4.28;2.85;;;;;;;;;;5091776;28;20124;-72
2022/04/16 14:32:23;;;;;;;5.72;2.97;;;;;;;;;;5076894;28;20024;-72
2022/04/16 14:41:09;;;;;;;5.03;3.13;;;;;;;;;;5092149;28;20032;-72
2022/04/16 14:43:45;;;;;;;5.68;2.90;;;;;;;;;;5100721;28;20085;-72
2022/04/16 14:46:11;;;;;;;5.72;2.88;;;;;;;;;;5079413;28;20042;-72
2022/04/16 14:48:37;;;;;;;5.50;3.70;;;;;;;;;;5088678;28;20055;-72
2022/04/16 14:51:03;;;;;;;5.05;2.47;;;;;;;;;;5090737;28;20061;-72
2022/04/16 14:53:30;;;;;;;5.80;3.33;;;;;;;;;;5071907;28;20051;-72
2022/04/16 14:55:57;;;;;;;4.40;2.55;;;;;;;;;;5091692;28;20534;-72
2022/04/16 14:58:24;;;;;;;5.28;2.80;;;;;;;;;;5071523;28;20500;-72
2022/04/16 15:01:04;;;;;;;4.38;2.80;;;;;;;;;;5072019;28;20056;-72
2022/04/16 15:03:50;;;;;;;5.75;2.42;;;;;;;;;;5068325;28;20032;-72
2022/04/16 15:06:16;;;;;;;5.07;2.50;;;;;;;;;;5086507;28;20063;-73
2022/04/16 15:12:14;;;;;;;3.10;2.30;;;;;;;;;;5011977;28;20129;-72
2022/04/16 15:14:40;;;;;;;6.72;2.63;;;;;;;;;;5006876;28;20034;-72
2022/04/16 15:17:06;;;;;;;4.78;2.35;;;;;;;;;;5021208;28;20493;-72
2022/04/16 15:19:32;;;;;;;3.63;2.58;;;;;;;;;;5021113;28;20026;-72
2022/04/16 15:21:59;;;;;;;4.90;2.33;;;;;;;;;;5006647;28;20146;-73
2022/04/16 15:24:25;;;;;;;5.05;2.47;;;;;;;;;;4987928;28;20442;-72
2022/04/16 15:26:51;;;;;;;4.65;2.05;;;;;;;;;;4993453;28;20073;-71
2022/04/16 15:29:17;;;;;;;4.25;2.20;;;;;;;;;;5008186;28;20100;-72
2022/04/16 15:31:43;;;;;;;6.45;2.05;;;;;;;;;;4990795;28;20117;-72
2022/04/16 15:34:11;;;;;;;3.42;1.98;;;;;;;;;;5009107;28;20108;-72
2022/04/16 15:36:37;;;;;;;2.95;1.95;;;;;;;;;;5019522;28;20066;-72
2022/04/16 15:39:04;;;;;;;3.40;2.22;;;;;;;;;;5018147;28;20040;-72
2022/04/16 15:41:32;;;;;;;4.32;2.38;;;;;;;;;;5026475;28;20427;-75
2022/04/16 15:44:03;;;;;;;3.00;2.03;;;;;;;;;;5018157;28;20033;-72
2022/04/16 15:46:29;;;;;;;4.65;2.60;;;;;;;;;;4992598;28;20030;-74
2022/04/16 15:48:54;;;;;;;2.45;1.90;;;;;;;;;;5069730;28;20020;-73
2022/04/16 15:51:20;;;;;;;2.90;2.17;;;;;;;;;;5099556;28;20055;-72
2022/04/16 15:53:49;;;;;;;3.75;2.10;;;;;;;;;;5090083;28;20043;-67
2022/04/16 15:56:15;;;;;;;3.17;1.83;;;;;;;;;;5091784;28;20408;-67
2022/04/16 15:58:41;;;;;;;5.03;2.70;;;;;;;;;;5091798;28;20020;-67
2022/04/16 16:01:07;;;;;;;6.07;2.53;;;;;;;;;;5087616;28;20462;-67
2022/04/16 16:03:34;;;;;;;11.60;2.35;;;;;;;;;;5098829;28;20027;-67
2022/04/16 16:06:00;;;;;;;5.57;2.92;;;;;;;;;;5086223;28;20045;-66